createdAt,value
2022-12-31T00:00:10.673Z,1000.44
2022-12-31T00:01:10.642Z,1000.39
2022-12-31T00:02:14.546Z,1000.38
2022-12-31T00:03:10.746Z,1000.50
2022-12-31T00:04:10.856Z,1000.49
2022-12-31T00:05:16.537Z,1000.45
2022-12-31T00:06:10.563Z,1000.47
2022-12-31T00:07:22.220Z,1000.49
2022-12-31T00:08:10.803Z,1000.49
2022-12-31T00:09:10.571Z,1000.49
2022-12-31T00:10:10.518Z,1000.41
2022-12-31T00:11:14.417Z,1000.44
2022-12-31T00:12:10.481Z,1000.45
2022-12-31T00:13:10.744Z,1000.31
2022-12-31T00:14:10.466Z,1000.44
2022-12-31T00:15:10.541Z,1000.39
2022-12-31T00:16:12.511Z,1000.42
2022-12-31T00:17:10.444Z,1000.47
2022-12-31T00:18:10.401Z,1000.37
2022-12-31T00:19:11.074Z,1000.41
2022-12-31T00:20:10.419Z,1000.43
2022-12-31T00:21:10.593Z,1000.48
2022-12-31T00:22:10.631Z,1000.38
2022-12-31T00:23:10.358Z,1000.35
2022-12-31T00:24:10.609Z,1000.36
2022-12-31T00:25:10.316Z,1000.31
2022-12-31T00:26:10.319Z,1000.32
2022-12-31T00:27:14.697Z,1000.31
2022-12-31T00:28:14.305Z,1000.28
2022-12-31T00:29:10.268Z,1000.24
2022-12-31T00:30:10.262Z,1000.24
2022-12-31T00:31:10.568Z,1000.23
2022-12-31T00:32:10.235Z,1000.27
2022-12-31T00:33:10.335Z,1000.23
2022-12-31T00:34:10.203Z,1000.22
2022-12-31T00:35:10.211Z,1000.21
2022-12-31T00:36:16.105Z,1000.24
2022-12-31T00:37:10.449Z,1000.21
2022-12-31T00:38:10.147Z,1000.18
2022-12-31T00:39:10.198Z,1000.11
2022-12-31T00:40:10.137Z,1000.15
2022-12-31T00:41:10.107Z,1000.15
2022-12-31T00:42:10.107Z,1000.23
2022-12-31T00:43:10.777Z,1000.22
2022-12-31T00:44:10.374Z,1000.21
2022-12-31T00:45:10.186Z,1000.10
2022-12-31T00:46:10.918Z,1000.13
2022-12-31T00:47:10.035Z,1000.16
2022-12-31T00:48:10.020Z,1000.18
2022-12-31T00:49:10.725Z,1000.18
2022-12-31T00:50:10.895Z,1000.20
2022-12-31T00:51:10.026Z,1000.12
2022-12-31T00:52:10.936Z,1000.19
2022-12-31T00:53:13.703Z,1000.12
2022-12-31T00:54:13.865Z,1000.10
2022-12-31T00:55:09.945Z,1000.14
2022-12-31T00:56:09.924Z,1000.14
2022-12-31T00:57:10.024Z,1000.15
2022-12-31T00:58:09.907Z,1000.11
2022-12-31T00:59:09.897Z,1000.15
2022-12-31T01:00:10.133Z,1000.12
2022-12-31T01:01:09.920Z,1000.08
2022-12-31T01:02:10.003Z,1000.08
2022-12-31T01:03:10.137Z,1000.09
2022-12-31T01:04:09.845Z,1000.07
2022-12-31T01:05:09.807Z,1000.08
2022-12-31T01:06:09.839Z,1000.21
2022-12-31T01:07:13.635Z,1000.20
2022-12-31T01:08:09.774Z,1000.17
2022-12-31T01:09:09.808Z,1000.14
2022-12-31T01:10:09.750Z,1000.12
2022-12-31T01:11:09.754Z,1000.16
2022-12-31T01:12:09.999Z,1000.15
2022-12-31T01:13:13.574Z,1000.12
2022-12-31T01:14:09.988Z,1000.17
2022-12-31T01:15:09.721Z,1000.22
2022-12-31T01:16:09.734Z,1000.21
2022-12-31T01:17:09.672Z,1000.13
2022-12-31T01:18:09.658Z,1000.17
2022-12-31T01:19:10.396Z,1000.20
2022-12-31T01:20:09.629Z,1000.15
2022-12-31T01:21:09.632Z,1000.34
2022-12-31T01:22:09.607Z,1000.19
2022-12-31T01:23:09.602Z,1000.17
2022-12-31T01:24:09.572Z,1000.24
2022-12-31T01:25:09.566Z,1000.20
2022-12-31T01:26:09.550Z,1000.28
2022-12-31T01:27:10.276Z,1000.22
2022-12-31T01:28:09.515Z,1000.21
2022-12-31T01:29:09.518Z,1000.14
2022-12-31T01:30:09.512Z,1000.17
2022-12-31T01:31:09.513Z,1000.22
2022-12-31T01:32:09.475Z,1000.21
2022-12-31T01:33:09.476Z,1000.24
2022-12-31T01:34:09.447Z,1000.21
2022-12-31T01:35:09.707Z,1000.24
2022-12-31T01:36:09.428Z,1000.25
2022-12-31T01:37:09.405Z,1000.27
2022-12-31T01:38:09.450Z,1000.15
2022-12-31T01:39:09.436Z,1000.13
2022-12-31T01:40:09.369Z,1000.20
2022-12-31T01:41:09.356Z,1000.19
2022-12-31T01:42:09.367Z,1000.20
2022-12-31T01:43:09.330Z,1000.24
2022-12-31T01:44:09.316Z,1000.17
2022-12-31T01:45:09.329Z,1000.24
2022-12-31T01:46:09.343Z,1000.17
2022-12-31T01:47:09.278Z,1000.21
2022-12-31T01:48:09.541Z,1000.22
2022-12-31T01:49:09.254Z,1000.16
2022-12-31T01:50:09.267Z,1000.22
2022-12-31T01:51:09.630Z,1000.20
2022-12-31T01:52:10.985Z,1000.21
2022-12-31T01:53:09.189Z,1000.18
2022-12-31T01:54:09.193Z,1000.09
2022-12-31T01:55:09.181Z,1000.14
2022-12-31T01:56:09.171Z,1000.13
2022-12-31T01:57:09.298Z,1000.16
2022-12-31T01:58:09.153Z,1000.18
2022-12-31T01:59:09.125Z,1000.09
2022-12-31T02:00:09.405Z,1000.16
2022-12-31T02:01:10.125Z,1000.12
2022-12-31T02:02:09.149Z,1000.01
2022-12-31T02:03:09.136Z,999.99
2022-12-31T02:04:09.068Z,999.98
2022-12-31T02:05:09.044Z,999.96
2022-12-31T02:06:09.068Z,1000.04
2022-12-31T02:07:09.053Z,999.96
2022-12-31T02:08:09.017Z,999.98
2022-12-31T02:09:09.099Z,999.97
2022-12-31T02:10:08.987Z,999.99
2022-12-31T02:11:08.980Z,1000.01
2022-12-31T02:12:08.975Z,999.99
2022-12-31T02:13:08.959Z,999.98
2022-12-31T02:14:08.937Z,1000.06
2022-12-31T02:15:08.953Z,1000.01
2022-12-31T02:16:08.943Z,999.92
2022-12-31T02:17:08.901Z,999.95
2022-12-31T02:18:08.897Z,1000.01
2022-12-31T02:19:09.587Z,1000.04
2022-12-31T02:20:08.883Z,999.95
2022-12-31T02:21:08.884Z,999.96
2022-12-31T02:22:12.844Z,999.94
2022-12-31T02:23:08.838Z,999.96
2022-12-31T02:24:09.206Z,1000.00
2022-12-31T02:25:08.823Z,1000.09
2022-12-31T02:26:08.783Z,1000.11
2022-12-31T02:27:08.814Z,1000.23
2022-12-31T02:28:08.756Z,1000.30
2022-12-31T02:29:08.741Z,1000.29
2022-12-31T02:30:08.751Z,1000.29
2022-12-31T02:31:08.740Z,1000.20
2022-12-31T02:32:12.722Z,1000.25
2022-12-31T02:33:08.742Z,1000.23
2022-12-31T02:34:08.684Z,1000.16
2022-12-31T02:35:08.715Z,1000.23
2022-12-31T02:36:09.485Z,1000.14
2022-12-31T02:37:12.447Z,1000.02
2022-12-31T02:38:12.579Z,1000.17
2022-12-31T02:39:13.268Z,1000.21
2022-12-31T02:40:08.607Z,1000.27
2022-12-31T02:41:08.597Z,1000.35
2022-12-31T02:42:08.895Z,1000.35
2022-12-31T02:43:08.572Z,1000.31
2022-12-31T02:44:08.551Z,1000.25
2022-12-31T02:45:08.575Z,1000.24
2022-12-31T02:46:08.575Z,1000.27
2022-12-31T02:47:09.298Z,1000.22
2022-12-31T02:48:08.517Z,1000.23
2022-12-31T02:49:08.785Z,1000.25
2022-12-31T02:50:08.495Z,1000.26
2022-12-31T02:51:08.587Z,1000.15
2022-12-31T02:52:08.463Z,1000.23
2022-12-31T02:53:08.456Z,1000.26
2022-12-31T02:54:08.469Z,1000.25
2022-12-31T02:55:08.415Z,1000.20
2022-12-31T02:56:08.405Z,1000.24
2022-12-31T02:57:09.322Z,1000.19
2022-12-31T02:58:08.410Z,1000.35
2022-12-31T02:59:08.663Z,1000.28
2022-12-31T03:00:13.040Z,1000.27
2022-12-31T03:01:08.742Z,1000.29
2022-12-31T03:02:08.437Z,1000.29
2022-12-31T03:03:08.429Z,1000.35
2022-12-31T03:04:08.576Z,1000.37
2022-12-31T03:05:08.293Z,1000.38
2022-12-31T03:06:08.279Z,1000.44
2022-12-31T03:07:08.269Z,1000.43
2022-12-31T03:08:08.249Z,1000.40
2022-12-31T03:09:08.275Z,1000.45
2022-12-31T03:10:08.245Z,1000.42
2022-12-31T03:11:08.513Z,1000.44
2022-12-31T03:12:08.206Z,1000.42
2022-12-31T03:13:08.327Z,1000.38
2022-12-31T03:14:08.185Z,1000.54
2022-12-31T03:15:08.190Z,1000.59
2022-12-31T03:16:08.229Z,1000.64
2022-12-31T03:17:08.169Z,1000.70
2022-12-31T03:18:08.134Z,1000.62
2022-12-31T03:19:08.114Z,1000.72
2022-12-31T03:20:08.093Z,1000.75
2022-12-31T03:21:08.165Z,1000.87
2022-12-31T03:22:08.074Z,1000.83
2022-12-31T03:23:08.072Z,1000.84
2022-12-31T03:24:08.052Z,1000.86
2022-12-31T03:25:08.054Z,1000.80
2022-12-31T03:26:08.022Z,1000.77
2022-12-31T03:27:08.140Z,1000.71
2022-12-31T03:28:07.994Z,1000.70
2022-12-31T03:29:07.987Z,1000.62
2022-12-31T03:30:07.994Z,1000.39
2022-12-31T03:31:08.287Z,1000.29
2022-12-31T03:32:08.215Z,1000.10
2022-12-31T03:33:07.987Z,1000.16
2022-12-31T03:34:07.918Z,1000.14
2022-12-31T03:35:07.949Z,1000.20
2022-12-31T03:36:07.913Z,1000.17
2022-12-31T03:37:07.889Z,1000.01
2022-12-31T03:38:07.874Z,999.84
2022-12-31T03:39:07.911Z,999.87
2022-12-31T03:40:07.862Z,999.84
2022-12-31T03:41:07.829Z,999.79
2022-12-31T03:42:07.824Z,999.78
2022-12-31T03:43:07.826Z,999.74
2022-12-31T03:44:07.792Z,999.72
2022-12-31T03:45:07.830Z,999.75
2022-12-31T03:46:07.885Z,999.78
2022-12-31T03:47:07.767Z,999.78
2022-12-31T03:48:07.757Z,999.85
2022-12-31T03:49:07.733Z,999.85
2022-12-31T03:50:07.714Z,999.89
2022-12-31T03:51:07.748Z,999.94
2022-12-31T03:52:08.123Z,1000.04
2022-12-31T03:53:07.687Z,1000.07
2022-12-31T03:54:07.664Z,1000.07
2022-12-31T03:55:07.672Z,1000.10
2022-12-31T03:56:07.645Z,1000.18
2022-12-31T03:57:07.765Z,1000.15
2022-12-31T03:58:07.615Z,1000.21
2022-12-31T03:59:07.608Z,1000.25
2022-12-31T04:00:07.598Z,1000.34
2022-12-31T04:01:07.643Z,1000.43
2022-12-31T04:02:07.708Z,1000.44
2022-12-31T04:03:07.646Z,1000.41
2022-12-31T04:04:07.552Z,1000.36
2022-12-31T04:05:07.536Z,1000.36
2022-12-31T04:06:07.532Z,1000.33
2022-12-31T04:07:07.508Z,1000.38
2022-12-31T04:08:07.502Z,1000.40
2022-12-31T04:09:07.569Z,1000.40
2022-12-31T04:10:07.471Z,1000.47
2022-12-31T04:11:07.475Z,1000.41
2022-12-31T04:12:07.441Z,1000.42
2022-12-31T04:13:07.462Z,1000.40
2022-12-31T04:14:07.413Z,1000.43
2022-12-31T04:15:08.406Z,1000.43
2022-12-31T04:16:07.421Z,1000.38
2022-12-31T04:17:07.382Z,1000.36
2022-12-31T04:18:07.389Z,1000.21
2022-12-31T04:19:07.385Z,1000.30
2022-12-31T04:20:07.335Z,1000.23
2022-12-31T04:21:07.743Z,1000.14
2022-12-31T04:22:07.326Z,1000.23
2022-12-31T04:23:08.123Z,1000.28
2022-12-31T04:24:07.304Z,1000.34
2022-12-31T04:25:07.293Z,1000.31
2022-12-31T04:26:07.286Z,1000.29
2022-12-31T04:27:08.164Z,1000.29
2022-12-31T04:28:07.238Z,1000.36
2022-12-31T04:29:07.240Z,1000.34
2022-12-31T04:30:07.199Z,1000.37
2022-12-31T04:31:07.215Z,1000.43
2022-12-31T04:32:07.202Z,1000.41
2022-12-31T04:33:07.234Z,1000.46
2022-12-31T04:34:07.176Z,1000.51
2022-12-31T04:35:07.158Z,1000.49
2022-12-31T04:36:07.139Z,1000.53
2022-12-31T04:37:07.129Z,1000.50
2022-12-31T04:38:07.114Z,1000.52
2022-12-31T04:39:07.169Z,1000.52
2022-12-31T04:40:07.237Z,1000.49
2022-12-31T04:41:07.224Z,1000.50
2022-12-31T04:42:07.868Z,1000.54
2022-12-31T04:43:07.061Z,1000.55
2022-12-31T04:44:07.324Z,1000.48
2022-12-31T04:45:07.369Z,1000.53
2022-12-31T04:46:07.355Z,1000.49
2022-12-31T04:47:07.013Z,1000.52
2022-12-31T04:48:06.993Z,1000.45
2022-12-31T04:49:06.983Z,1000.50
2022-12-31T04:50:06.976Z,1000.59
2022-12-31T04:51:07.373Z,1000.61
2022-12-31T04:52:07.094Z,1000.58
2022-12-31T04:53:07.707Z,1000.60
2022-12-31T04:54:06.927Z,1000.56
2022-12-31T04:55:06.904Z,1000.54
2022-12-31T04:56:06.890Z,1000.56
2022-12-31T04:57:06.990Z,1000.59
2022-12-31T04:58:06.891Z,1000.59
2022-12-31T04:59:06.857Z,1000.61
2022-12-31T05:00:06.848Z,1000.62
2022-12-31T05:01:06.931Z,1000.61
2022-12-31T05:02:07.049Z,1000.55
2022-12-31T05:03:06.917Z,1000.58
2022-12-31T05:04:06.789Z,1000.54
2022-12-31T05:05:07.072Z,1000.60
2022-12-31T05:06:06.799Z,1000.57
2022-12-31T05:07:06.771Z,1000.48
2022-12-31T05:08:06.742Z,1000.55
2022-12-31T05:09:06.770Z,1000.55
2022-12-31T05:10:06.715Z,1000.51
2022-12-31T05:11:06.704Z,1000.45
2022-12-31T05:12:06.723Z,1000.43
2022-12-31T05:13:06.673Z,1000.50
2022-12-31T05:14:06.663Z,1000.57
2022-12-31T05:15:06.794Z,1000.55
2022-12-31T05:16:06.658Z,1000.60
2022-12-31T05:17:07.118Z,1000.56
2022-12-31T05:18:06.614Z,1000.54
2022-12-31T05:19:06.864Z,1000.58
2022-12-31T05:20:06.614Z,1000.56
2022-12-31T05:21:06.615Z,1000.56
2022-12-31T05:22:06.557Z,1000.51
2022-12-31T05:23:06.560Z,1000.53
2022-12-31T05:24:06.548Z,1000.58
2022-12-31T05:25:06.548Z,1000.62
2022-12-31T05:26:06.514Z,1000.62
2022-12-31T05:27:06.558Z,1000.60
2022-12-31T05:28:06.488Z,1000.60
2022-12-31T05:29:06.508Z,1000.61
2022-12-31T05:30:06.501Z,1000.60
2022-12-31T05:31:06.512Z,1000.61
2022-12-31T05:32:06.458Z,1000.66
2022-12-31T05:33:06.667Z,1000.68
2022-12-31T05:34:06.426Z,1000.59
2022-12-31T05:35:06.418Z,1000.56
2022-12-31T05:36:06.414Z,1000.41
2022-12-31T05:37:06.683Z,1000.46
2022-12-31T05:38:06.371Z,1000.55
2022-12-31T05:39:06.397Z,1000.55
2022-12-31T05:40:10.471Z,1000.63
2022-12-31T05:41:06.627Z,1000.64
2022-12-31T05:42:06.321Z,1000.60
2022-12-31T05:43:06.611Z,1000.56
2022-12-31T05:44:06.295Z,1000.56
2022-12-31T05:45:06.322Z,1000.61
2022-12-31T05:46:06.300Z,1000.64
2022-12-31T05:47:06.263Z,1000.63
2022-12-31T05:48:06.506Z,1000.60
2022-12-31T05:49:06.228Z,1000.57
2022-12-31T05:50:06.247Z,1000.53
2022-12-31T05:51:06.256Z,1000.57
2022-12-31T05:52:06.190Z,1000.58
2022-12-31T05:53:06.182Z,1000.58
2022-12-31T05:54:06.170Z,1000.56
2022-12-31T05:55:06.157Z,1000.59
2022-12-31T05:56:06.156Z,1000.61
2022-12-31T05:57:06.165Z,1000.54
2022-12-31T05:58:06.385Z,1000.59
2022-12-31T05:59:06.101Z,1000.60
2022-12-31T06:00:06.086Z,1000.53
2022-12-31T06:01:06.139Z,1000.46
2022-12-31T06:02:06.063Z,1000.53
2022-12-31T06:03:06.527Z,1000.54
2022-12-31T06:04:06.100Z,1000.61
2022-12-31T06:05:06.338Z,1000.63
2022-12-31T06:06:06.302Z,1000.64
2022-12-31T06:07:06.029Z,1000.58
2022-12-31T06:08:05.998Z,1000.66
2022-12-31T06:09:06.370Z,1000.63
2022-12-31T06:10:05.987Z,1000.52
2022-12-31T06:11:05.954Z,1000.59
2022-12-31T06:12:05.949Z,1000.61
2022-12-31T06:13:05.966Z,1000.64
2022-12-31T06:14:05.941Z,1000.64
2022-12-31T06:15:06.015Z,1000.72
2022-12-31T06:16:05.937Z,1000.72
2022-12-31T06:17:05.950Z,1000.69
2022-12-31T06:18:05.854Z,1000.69
2022-12-31T06:19:05.863Z,1000.67
2022-12-31T06:20:12.204Z,1000.66
2022-12-31T06:21:06.886Z,1000.68
2022-12-31T06:22:05.818Z,1000.74
2022-12-31T06:23:05.839Z,1000.80
2022-12-31T06:24:05.789Z,1000.79
2022-12-31T06:25:05.796Z,1000.77
2022-12-31T06:26:06.144Z,1000.79
2022-12-31T06:27:05.870Z,1000.79
2022-12-31T06:28:05.741Z,1000.74
2022-12-31T06:29:05.720Z,1000.78
2022-12-31T06:30:05.709Z,1000.86
2022-12-31T06:31:05.752Z,1000.89
2022-12-31T06:32:05.967Z,1000.98
2022-12-31T06:33:05.792Z,1000.94
2022-12-31T06:34:05.661Z,1000.98
2022-12-31T06:35:05.665Z,1000.97
2022-12-31T06:36:05.662Z,1000.91
2022-12-31T06:37:05.896Z,1000.85
2022-12-31T06:38:05.628Z,1000.93
2022-12-31T06:39:05.613Z,1000.99
2022-12-31T06:40:05.582Z,1001.00
2022-12-31T06:41:05.629Z,1001.00
2022-12-31T06:42:05.566Z,1001.05
2022-12-31T06:43:05.565Z,1001.08
2022-12-31T06:44:05.525Z,1001.06
2022-12-31T06:45:05.864Z,1001.09
2022-12-31T06:46:05.568Z,1000.99
2022-12-31T06:47:05.514Z,1000.94
2022-12-31T06:48:05.476Z,1000.90
2022-12-31T06:49:05.846Z,1000.94
2022-12-31T06:50:05.747Z,1000.89
2022-12-31T06:51:05.571Z,1000.95
2022-12-31T06:52:05.709Z,1000.88
2022-12-31T06:53:05.428Z,1000.91
2022-12-31T06:54:05.408Z,1000.88
2022-12-31T06:55:05.425Z,1000.82
2022-12-31T06:56:05.407Z,1000.84
2022-12-31T06:57:06.279Z,1000.81
2022-12-31T06:58:05.382Z,1000.83
2022-12-31T06:59:05.344Z,1000.82
2022-12-31T07:00:05.336Z,1000.82
2022-12-31T07:01:05.344Z,1000.80
2022-12-31T07:02:05.539Z,1000.77
2022-12-31T07:03:05.467Z,1000.79
2022-12-31T07:04:05.288Z,1000.81
2022-12-31T07:05:05.273Z,1000.79
2022-12-31T07:06:05.567Z,1000.79
2022-12-31T07:07:05.247Z,1000.81
2022-12-31T07:08:05.232Z,1000.93
2022-12-31T07:09:05.329Z,1000.93
2022-12-31T07:10:05.224Z,1000.94
2022-12-31T07:11:05.516Z,1000.96
2022-12-31T07:12:05.955Z,1001.02
2022-12-31T07:13:05.472Z,1001.08
2022-12-31T07:14:05.161Z,1001.00
2022-12-31T07:15:05.168Z,1000.98
2022-12-31T07:16:05.147Z,1000.94
2022-12-31T07:17:05.109Z,1000.93
2022-12-31T07:18:05.106Z,1000.92
2022-12-31T07:19:05.122Z,1000.82
2022-12-31T07:20:05.086Z,1000.94
2022-12-31T07:21:05.114Z,1000.92
2022-12-31T07:22:05.064Z,1000.87
2022-12-31T07:23:05.047Z,1000.90
2022-12-31T07:24:05.053Z,1000.87
2022-12-31T07:25:05.198Z,1000.91
2022-12-31T07:26:05.288Z,1000.94
2022-12-31T07:27:05.049Z,1000.86
2022-12-31T07:28:04.980Z,1000.80
2022-12-31T07:29:04.969Z,1000.88
2022-12-31T07:30:04.965Z,1000.86
2022-12-31T07:31:05.011Z,1000.91
2022-12-31T07:32:04.932Z,1000.88
2022-12-31T07:33:04.937Z,1000.89
2022-12-31T07:34:04.911Z,1000.89
2022-12-31T07:35:05.429Z,1000.91
2022-12-31T07:36:04.882Z,1000.90
2022-12-31T07:37:04.873Z,1000.89
2022-12-31T07:38:04.854Z,1000.97
2022-12-31T07:39:04.877Z,1001.00
2022-12-31T07:40:04.845Z,1000.93
2022-12-31T07:41:09.497Z,1000.90
2022-12-31T07:42:05.807Z,1000.87
2022-12-31T07:43:04.785Z,1000.93
2022-12-31T07:44:04.797Z,1000.93
2022-12-31T07:45:04.807Z,1000.98
2022-12-31T07:46:04.766Z,1000.90
2022-12-31T07:47:04.743Z,1000.92
2022-12-31T07:48:04.736Z,1000.93
2022-12-31T07:49:05.053Z,1000.88
2022-12-31T07:50:04.699Z,1001.03
2022-12-31T07:51:04.712Z,1000.92
2022-12-31T07:52:04.693Z,1000.90
2022-12-31T07:53:04.665Z,1000.94
2022-12-31T07:54:08.738Z,1000.99
2022-12-31T07:55:05.660Z,1000.96
2022-12-31T07:56:04.648Z,1000.99
2022-12-31T07:57:04.720Z,1000.97
2022-12-31T07:58:04.602Z,1001.00
2022-12-31T07:59:04.858Z,1001.11
2022-12-31T08:00:04.571Z,1001.11
2022-12-31T08:01:04.936Z,1000.98
2022-12-31T08:02:05.474Z,1000.97
2022-12-31T08:03:04.958Z,1000.92
2022-12-31T08:04:04.554Z,1001.03
2022-12-31T08:05:04.502Z,1000.93
2022-12-31T08:06:04.513Z,1000.95
2022-12-31T08:07:04.493Z,1000.97
2022-12-31T08:08:04.475Z,1000.91
2022-12-31T08:09:04.575Z,1000.85
2022-12-31T08:10:04.458Z,1000.96
2022-12-31T08:11:04.438Z,1000.93
2022-12-31T08:12:04.423Z,1000.88
2022-12-31T08:13:04.705Z,1000.99
2022-12-31T08:14:04.390Z,1000.93
2022-12-31T08:15:04.459Z,1000.93
2022-12-31T08:16:04.446Z,1001.00
2022-12-31T08:17:04.377Z,1000.99
2022-12-31T08:18:04.636Z,1001.03
2022-12-31T08:19:04.330Z,1000.96
2022-12-31T08:20:04.322Z,1000.95
2022-12-31T08:21:04.689Z,1001.01
2022-12-31T08:22:05.062Z,1001.13
2022-12-31T08:23:04.285Z,1001.05
2022-12-31T08:24:04.308Z,1000.96
2022-12-31T08:25:04.248Z,1000.95
2022-12-31T08:26:04.253Z,1000.94
2022-12-31T08:27:04.352Z,1000.99
2022-12-31T08:28:04.256Z,1000.89
2022-12-31T08:29:04.203Z,1000.84
2022-12-31T08:30:04.220Z,1000.86
2022-12-31T08:31:04.204Z,1000.91
2022-12-31T08:32:04.172Z,1001.02
2022-12-31T08:33:08.154Z,1000.90
2022-12-31T08:34:06.120Z,1000.93
2022-12-31T08:35:04.464Z,1000.94
2022-12-31T08:36:04.124Z,1000.96
2022-12-31T08:37:04.103Z,1000.97
2022-12-31T08:38:04.108Z,1001.03
2022-12-31T08:39:04.122Z,1001.03
2022-12-31T08:40:04.103Z,1001.06
2022-12-31T08:41:04.059Z,1001.06
2022-12-31T08:42:04.065Z,1001.10
2022-12-31T08:43:04.053Z,1001.09
2022-12-31T08:44:04.038Z,1001.06
2022-12-31T08:45:04.382Z,1001.08
2022-12-31T08:46:04.051Z,1001.14
2022-12-31T08:47:03.975Z,1001.03
2022-12-31T08:48:03.965Z,1001.02
2022-12-31T08:49:03.955Z,1001.03
2022-12-31T08:50:03.965Z,1000.98
2022-12-31T08:51:03.968Z,1001.09
2022-12-31T08:52:03.957Z,1001.06
2022-12-31T08:53:03.900Z,1001.08
2022-12-31T08:54:03.892Z,1001.06
2022-12-31T08:55:03.880Z,1000.90
2022-12-31T08:56:04.060Z,1000.91
2022-12-31T08:57:03.900Z,1000.95
2022-12-31T08:58:03.853Z,1000.99
2022-12-31T08:59:03.835Z,1001.00
2022-12-31T09:00:03.844Z,1000.99
2022-12-31T09:01:03.914Z,1001.07
2022-12-31T09:02:03.896Z,1001.01
2022-12-31T09:03:03.852Z,1001.01
2022-12-31T09:04:03.802Z,1001.15
2022-12-31T09:05:03.754Z,1001.09
2022-12-31T09:06:03.746Z,1001.12
2022-12-31T09:07:03.896Z,1001.20
2022-12-31T09:08:03.724Z,1001.14
2022-12-31T09:09:03.835Z,1001.12
2022-12-31T09:10:03.839Z,1001.15
2022-12-31T09:11:03.692Z,1001.25
2022-12-31T09:12:03.688Z,1001.24
2022-12-31T09:13:03.657Z,1001.26
2022-12-31T09:14:03.723Z,1001.22
2022-12-31T09:15:03.944Z,1001.15
2022-12-31T09:16:03.726Z,1001.14
2022-12-31T09:17:03.606Z,1001.18
2022-12-31T09:18:03.609Z,1001.09
2022-12-31T09:19:03.858Z,1001.13
2022-12-31T09:20:03.575Z,1001.02
2022-12-31T09:21:03.590Z,1001.15
2022-12-31T09:22:03.555Z,1001.11
2022-12-31T09:23:03.552Z,1001.13
2022-12-31T09:24:09.162Z,1001.10
2022-12-31T09:25:04.516Z,1001.12
2022-12-31T09:26:03.494Z,1001.19
2022-12-31T09:27:04.163Z,1001.33
2022-12-31T09:28:03.469Z,1001.49
2022-12-31T09:29:07.296Z,1001.84
2022-12-31T09:30:04.274Z,1001.96
2022-12-31T09:31:04.220Z,1002.07
2022-12-31T09:32:04.399Z,1002.21
2022-12-31T09:33:03.809Z,1002.05
2022-12-31T09:34:07.458Z,1002.04
2022-12-31T09:35:03.626Z,1001.86
2022-12-31T09:36:03.359Z,1001.81
2022-12-31T09:37:04.112Z,1001.87
2022-12-31T09:38:07.982Z,1001.99
2022-12-31T09:39:04.473Z,1002.07
2022-12-31T09:40:03.310Z,1002.07
2022-12-31T09:41:03.297Z,1001.99
2022-12-31T09:42:03.684Z,1002.01
2022-12-31T09:43:03.308Z,1002.08
2022-12-31T09:44:03.988Z,1001.93
2022-12-31T09:45:03.281Z,1002.10
2022-12-31T09:46:03.306Z,1002.14
2022-12-31T09:47:03.211Z,1002.20
2022-12-31T09:48:03.210Z,1002.31
2022-12-31T09:49:03.481Z,1002.31
2022-12-31T09:50:03.217Z,1002.39
2022-12-31T09:51:03.279Z,1002.47
2022-12-31T09:52:03.179Z,1002.52
2022-12-31T09:53:03.153Z,1002.52
2022-12-31T09:54:03.137Z,1002.43
2022-12-31T09:55:03.121Z,1002.42
2022-12-31T09:56:03.112Z,1002.62
2022-12-31T09:57:03.214Z,1002.62
2022-12-31T09:58:03.082Z,1002.65
2022-12-31T09:59:03.064Z,1002.60
2022-12-31T10:00:03.059Z,1002.71
2022-12-31T10:01:03.166Z,1002.71
2022-12-31T10:02:03.188Z,1002.70
2022-12-31T10:03:03.073Z,1002.87
2022-12-31T10:04:03.019Z,1002.89
2022-12-31T10:05:03.017Z,1002.87
2022-12-31T10:06:02.978Z,1002.80
2022-12-31T10:07:02.964Z,1002.91
2022-12-31T10:08:02.948Z,1002.88
2022-12-31T10:09:03.079Z,1002.71
2022-12-31T10:10:02.954Z,1002.77
2022-12-31T10:11:02.924Z,1002.86
2022-12-31T10:12:02.899Z,1002.74
2022-12-31T10:13:02.891Z,1002.83
2022-12-31T10:14:02.887Z,1002.83
2022-12-31T10:15:02.905Z,1002.79
2022-12-31T10:16:02.858Z,1002.92
2022-12-31T10:17:02.876Z,1002.85
2022-12-31T10:18:02.828Z,1002.87
2022-12-31T10:19:02.881Z,1002.87
2022-12-31T10:20:02.846Z,1002.80
2022-12-31T10:21:02.830Z,1002.91
2022-12-31T10:22:02.789Z,1002.88
2022-12-31T10:23:02.778Z,1002.95
2022-12-31T10:24:02.743Z,1002.97
2022-12-31T10:25:02.769Z,1002.98
2022-12-31T10:26:02.727Z,1002.93
2022-12-31T10:27:02.825Z,1002.98
2022-12-31T10:28:02.716Z,1002.92
2022-12-31T10:29:02.678Z,1002.93
2022-12-31T10:30:02.732Z,1002.96
2022-12-31T10:31:02.757Z,1002.95
2022-12-31T10:32:02.673Z,1002.96
2022-12-31T10:33:02.661Z,1002.93
2022-12-31T10:34:02.655Z,1002.92
2022-12-31T10:35:02.611Z,1002.89
2022-12-31T10:36:02.599Z,1002.86
2022-12-31T10:37:03.076Z,1002.83
2022-12-31T10:38:02.627Z,1002.90
2022-12-31T10:39:06.166Z,1002.90
2022-12-31T10:40:04.385Z,1002.86
2022-12-31T10:41:02.544Z,1002.86
2022-12-31T10:42:02.534Z,1002.89
2022-12-31T10:43:02.515Z,1002.96
2022-12-31T10:44:02.786Z,1002.84
2022-12-31T10:45:02.495Z,1002.85
2022-12-31T10:46:02.542Z,1002.84
2022-12-31T10:47:02.652Z,1002.79
2022-12-31T10:48:02.450Z,1002.90
2022-12-31T10:49:02.428Z,1002.91
2022-12-31T10:50:02.435Z,1003.05
2022-12-31T10:51:02.540Z,1002.96
2022-12-31T10:52:02.393Z,1002.87
2022-12-31T10:53:02.381Z,1002.80
2022-12-31T10:54:02.380Z,1002.86
2022-12-31T10:55:02.354Z,1002.95
2022-12-31T10:56:02.370Z,1002.96
2022-12-31T10:57:02.398Z,1002.99
2022-12-31T10:58:04.459Z,1002.94
2022-12-31T10:59:02.315Z,1002.93
2022-12-31T11:00:02.298Z,1003.00
2022-12-31T11:01:02.399Z,1003.06
2022-12-31T11:02:02.424Z,1003.05
2022-12-31T11:03:02.300Z,1003.09
2022-12-31T11:04:02.238Z,1003.10
2022-12-31T11:05:02.499Z,1003.04
2022-12-31T11:06:02.216Z,1002.91
2022-12-31T11:07:02.220Z,1003.09
2022-12-31T11:08:02.461Z,1002.87
2022-12-31T11:09:02.203Z,1003.07
2022-12-31T11:10:02.195Z,1003.06
2022-12-31T11:11:02.171Z,1002.81
2022-12-31T11:12:02.159Z,1002.89
2022-12-31T11:13:02.133Z,1002.83
2022-12-31T11:14:02.116Z,1002.86
2022-12-31T11:15:02.237Z,1002.89
2022-12-31T11:16:02.139Z,1002.86
2022-12-31T11:17:02.094Z,1002.70
2022-12-31T11:18:02.057Z,1002.76
2022-12-31T11:19:02.057Z,1002.75
2022-12-31T11:20:02.071Z,1002.76
2022-12-31T11:21:02.242Z,1002.71
2022-12-31T11:22:02.023Z,1002.71
2022-12-31T11:23:02.010Z,1002.69
2022-12-31T11:24:01.984Z,1002.53
2022-12-31T11:25:02.052Z,1002.64
2022-12-31T11:26:01.984Z,1002.71
2022-12-31T11:27:02.057Z,1002.73
2022-12-31T11:28:01.930Z,1002.72
2022-12-31T11:29:01.963Z,1002.64
2022-12-31T11:30:01.909Z,1002.72
2022-12-31T11:31:01.964Z,1002.67
2022-12-31T11:32:01.903Z,1002.69
2022-12-31T11:33:01.998Z,1002.75
2022-12-31T11:34:01.882Z,1002.61
2022-12-31T11:35:01.858Z,1002.70
2022-12-31T11:36:01.848Z,1002.75
2022-12-31T11:37:01.843Z,1002.63
2022-12-31T11:38:05.795Z,1002.71
2022-12-31T11:39:01.915Z,1002.59
2022-12-31T11:40:01.797Z,1002.70
2022-12-31T11:41:01.781Z,1002.67
2022-12-31T11:42:01.761Z,1002.63
2022-12-31T11:43:01.895Z,1002.57
2022-12-31T11:44:01.738Z,1002.56
2022-12-31T11:45:01.750Z,1002.60
2022-12-31T11:46:01.767Z,1002.61
2022-12-31T11:47:01.702Z,1002.58
2022-12-31T11:48:29.615Z,1002.63
2022-12-31T11:49:02.679Z,1002.59
2022-12-31T11:50:01.659Z,1002.59
2022-12-31T11:51:01.959Z,1002.60
2022-12-31T11:52:01.644Z,1002.53
2022-12-31T11:53:01.906Z,1002.58
2022-12-31T11:54:01.619Z,1002.60
2022-12-31T11:55:01.596Z,1002.63
2022-12-31T11:56:01.591Z,1002.60
2022-12-31T11:57:01.600Z,1002.69
2022-12-31T11:58:01.549Z,1002.67
2022-12-31T11:59:06.155Z,1002.59
2022-12-31T12:00:02.556Z,1002.60
2022-12-31T12:01:01.582Z,1002.55
2022-12-31T12:02:01.529Z,1002.55
2022-12-31T12:03:01.678Z,1002.49
2022-12-31T12:04:01.944Z,1002.51
2022-12-31T12:05:08.267Z,1002.53
2022-12-31T12:06:02.832Z,1002.56